sensor_id;sensor_type;location;lat;lon;timestamp;temperature;humidity
23507;DHT22;11930;53.076;18.250;2023-04-25T00:20:32;11.20;99.90
23507;DHT22;11930;53.076;18.250;2023-04-25T00:25:24;11.40;99.90
23507;DHT22;11930;53.076;18.250;2023-04-25T00:27:50;11.30;99.90
23507;DHT22;11930;53.076;18.250;2023-04-25T00:30:16;11.30;99.90
23507;DHT22;11930;53.076;18.250;2023-04-25T00:32:42;11.40;99.90
23507;DHT22;11930;53.076;18.250;2023-04-25T00:35:09;10.40;99.90
23507;DHT22;11930;53.076;18.250;2023-04-25T00:40:02;10.50;99.90
23507;DHT22;11930;53.076;18.250;2023-04-25T00:44:59;11.90;99.90
23507;DHT22;11930;53.076;18.250;2023-04-25T00:47:25;11.10;99.90
23507;DHT22;11930;53.076;18.250;2023-04-25T00:49:51;11.00;99.90
23507;DHT22;11930;53.076;18.250;2023-04-25T00:52:19;11.00;99.90
23507;DHT22;11930;53.076;18.250;2023-04-25T00:54:46;11.20;99.90
23507;DHT22;11930;53.076;18.250;2023-04-25T00:57:11;11.00;99.90
23507;DHT22;11930;53.076;18.250;2023-04-25T00:59:38;10.90;99.90
23507;DHT22;11930;53.076;18.250;2023-04-25T01:02:05;11.30;99.90
23507;DHT22;11930;53.076;18.250;2023-04-25T01:06:58;10.90;99.90
23507;DHT22;11930;53.076;18.250;2023-04-25T01:09:25;10.80;99.90
23507;DHT22;11930;53.076;18.250;2023-04-25T01:11:51;10.80;99.90
23507;DHT22;11930;53.076;18.250;2023-04-25T01:14:17;11.00;99.90
23507;DHT22;11930;53.076;18.250;2023-04-25T01:24:05;10.20;99.90
23507;DHT22;11930;53.076;18.250;2023-04-25T01:26:31;10.70;99.90
23507;DHT22;11930;53.076;18.250;2023-04-25T01:28:58;10.70;99.90
23507;DHT22;11930;53.076;18.250;2023-04-25T01:31:27;10.80;99.90
23507;DHT22;11930;53.076;18.250;2023-04-25T01:33:53;10.70;99.90
23507;DHT22;11930;53.076;18.250;2023-04-25T01:36:21;10.70;99.90
23507;DHT22;11930;53.076;18.250;2023-04-25T01:38:47;10.70;99.90
23507;DHT22;11930;53.076;18.250;2023-04-25T01:41:14;10.50;99.90
23507;DHT22;11930;53.076;18.250;2023-04-25T01:43:40;10.20;99.90
23507;DHT22;11930;53.076;18.250;2023-04-25T01:46:06;10.70;99.90
23507;DHT22;11930;53.076;18.250;2023-04-25T01:48:32;10.40;99.90
23507;DHT22;11930;53.076;18.250;2023-04-25T01:50:58;9.70;99.90
23507;DHT22;11930;53.076;18.250;2023-04-25T01:53:25;10.10;99.90
23507;DHT22;11930;53.076;18.250;2023-04-25T01:55:52;9.60;99.90
23507;DHT22;11930;53.076;18.250;2023-04-25T02:01:16;10.10;99.90
23507;DHT22;11930;53.076;18.250;2023-04-25T02:08:57;9.80;99.90
23507;DHT22;11930;53.076;18.250;2023-04-25T02:11:22;10.10;99.90
23507;DHT22;11930;53.076;18.250;2023-04-25T02:16:58;9.70;99.90
23507;DHT22;11930;53.076;18.250;2023-04-25T02:21:50;10.10;99.90
23507;DHT22;11930;53.076;18.250;2023-04-25T02:26:43;9.70;99.90
23507;DHT22;11930;53.076;18.250;2023-04-25T02:29:10;9.30;99.90
23507;DHT22;11930;53.076;18.250;2023-04-25T02:31:36;9.30;99.90
23507;DHT22;11930;53.076;18.250;2023-04-25T02:38:58;9.20;99.90
23507;DHT22;11930;53.076;18.250;2023-04-25T02:41:24;9.50;99.90
23507;DHT22;11930;53.076;18.250;2023-04-25T02:43:50;9.50;99.90
23507;DHT22;11930;53.076;18.250;2023-04-25T02:53:39;9.20;99.90
23507;DHT22;11930;53.076;18.250;2023-04-25T02:56:05;8.90;99.90
23507;DHT22;11930;53.076;18.250;2023-04-25T03:25:35;7.80;99.90
23507;DHT22;11930;53.076;18.250;2023-04-25T03:43:11;7.70;99.90
23507;DHT22;11930;53.076;18.250;2023-04-25T03:57:58;8.20;99.90
23507;DHT22;11930;53.076;18.250;2023-04-25T04:05:19;8.00;99.90
23507;DHT22;11930;53.076;18.250;2023-04-25T04:17:38;7.90;99.90
23507;DHT22;11930;53.076;18.250;2023-04-25T04:20:04;8.20;99.90
23507;DHT22;11930;53.076;18.250;2023-04-25T04:22:32;8.20;99.90
23507;DHT22;11930;53.076;18.250;2023-04-25T04:25:02;9.00;99.90
23507;DHT22;11930;53.076;18.250;2023-04-25T04:30:56;8.90;99.90
23507;DHT22;11930;53.076;18.250;2023-04-25T04:33:25;8.50;99.90
23507;DHT22;11930;53.076;18.250;2023-04-25T04:40:52;9.20;99.90
23507;DHT22;11930;53.076;18.250;2023-04-25T04:43:29;9.20;99.90
23507;DHT22;11930;53.076;18.250;2023-04-25T04:46:03;9.60;99.90
23507;DHT22;11930;53.076;18.250;2023-04-25T04:51:40;9.30;99.90
23507;DHT22;11930;53.076;18.250;2023-04-25T05:49:12;9.60;99.90
23507;DHT22;11930;53.076;18.250;2023-04-25T05:52:01;9.30;99.90
23507;DHT22;11930;53.076;18.250;2023-04-25T05:55:03;9.90;99.90
23507;DHT22;11930;53.076;18.250;2023-04-25T05:57:31;10.00;99.90
23507;DHT22;11930;53.076;18.250;2023-04-25T06:02:39;10.40;99.90
23507;DHT22;11930;53.076;18.250;2023-04-25T06:05:06;10.60;99.90
23507;DHT22;11930;53.076;18.250;2023-04-25T06:07:32;10.80;99.90
23507;DHT22;11930;53.076;18.250;2023-04-25T06:12:26;10.30;99.90
23507;DHT22;11930;53.076;18.250;2023-04-25T06:17:19;11.30;99.90
23507;DHT22;11930;53.076;18.250;2023-04-25T06:19:49;11.70;99.90
23507;DHT22;11930;53.076;18.250;2023-04-25T06:22:15;12.00;99.90
23507;DHT22;11930;53.076;18.250;2023-04-25T06:24:41;11.90;99.90
23507;DHT22;11930;53.076;18.250;2023-04-25T06:27:07;12.50;99.90
23507;DHT22;11930;53.076;18.250;2023-04-25T06:29:34;12.60;99.90
23507;DHT22;11930;53.076;18.250;2023-04-25T06:34:26;12.60;99.90
23507;DHT22;11930;53.076;18.250;2023-04-25T06:36:52;12.40;99.90
23507;DHT22;11930;53.076;18.250;2023-04-25T06:39:20;12.30;99.90
23507;DHT22;11930;53.076;18.250;2023-04-25T06:41:49;12.10;99.90
23507;DHT22;11930;53.076;18.250;2023-04-25T06:44:35;12.40;99.90
23507;DHT22;11930;53.076;18.250;2023-04-25T06:47:02;12.50;99.90
23507;DHT22;11930;53.076;18.250;2023-04-25T06:49:29;12.40;99.90
23507;DHT22;11930;53.076;18.250;2023-04-25T06:54:21;12.70;99.90
23507;DHT22;11930;53.076;18.250;2023-04-25T06:56:59;13.10;99.90
23507;DHT22;11930;53.076;18.250;2023-04-25T07:01:53;13.40;99.90
23507;DHT22;11930;53.076;18.250;2023-04-25T07:09:28;13.80;99.90
23507;DHT22;11930;53.076;18.250;2023-04-25T07:11:55;13.50;99.90
23507;DHT22;11930;53.076;18.250;2023-04-25T07:14:22;14.00;99.90
23507;DHT22;11930;53.076;18.250;2023-04-25T07:19:15;14.50;99.90
23507;DHT22;11930;53.076;18.250;2023-04-25T07:21:41;14.40;99.90
23507;DHT22;11930;53.076;18.250;2023-04-25T07:24:07;14.80;99.90
23507;DHT22;11930;53.076;18.250;2023-04-25T07:26:38;14.60;99.90
23507;DHT22;11930;53.076;18.250;2023-04-25T07:29:37;13.90;99.90
23507;DHT22;11930;53.076;18.250;2023-04-25T07:32:04;15.00;99.90
23507;DHT22;11930;53.076;18.250;2023-04-25T07:39:28;14.60;99.90
23507;DHT22;11930;53.076;18.250;2023-04-25T07:46:53;16.40;99.90
23507;DHT22;11930;53.076;18.250;2023-04-25T07:49:19;17.00;98.10
23507;DHT22;11930;53.076;18.250;2023-04-25T07:51:45;16.70;96.10
23507;DHT22;11930;53.076;18.250;2023-04-25T07:54:15;16.80;94.70
23507;DHT22;11930;53.076;18.250;2023-04-25T07:56:46;17.00;91.90
23507;DHT22;11930;53.076;18.250;2023-04-25T07:59:13;16.60;90.50
23507;DHT22;11930;53.076;18.250;2023-04-25T08:01:41;17.10;92.00
23507;DHT22;11930;53.076;18.250;2023-04-25T08:04:07;16.50;90.10
23507;DHT22;11930;53.076;18.250;2023-04-25T08:12:16;15.70;92.10
23507;DHT22;11930;53.076;18.250;2023-04-25T08:14:42;15.60;92.50
23507;DHT22;11930;53.076;18.250;2023-04-25T08:17:09;14.40;93.90
23507;DHT22;11930;53.076;18.250;2023-04-25T08:19:40;14.80;95.40
23507;DHT22;11930;53.076;18.250;2023-04-25T08:24:46;14.50;97.50
23507;DHT22;11930;53.076;18.250;2023-04-25T08:27:12;14.40;99.40
23507;DHT22;11930;53.076;18.250;2023-04-25T08:29:38;14.00;99.90
23507;DHT22;11930;53.076;18.250;2023-04-25T08:32:04;13.10;99.90
23507;DHT22;11930;53.076;18.250;2023-04-25T08:37:02;13.80;99.90
23507;DHT22;11930;53.076;18.250;2023-04-25T08:39:50;13.20;99.90
23507;DHT22;11930;53.076;18.250;2023-04-25T08:42:44;13.50;99.90
23507;DHT22;11930;53.076;18.250;2023-04-25T08:45:13;12.60;99.90
23507;DHT22;11930;53.076;18.250;2023-04-25T08:47:43;13.20;99.90
23507;DHT22;11930;53.076;18.250;2023-04-25T08:50:11;13.30;99.90
23507;DHT22;11930;53.076;18.250;2023-04-25T08:52:44;13.60;99.90
23507;DHT22;11930;53.076;18.250;2023-04-25T08:55:15;13.20;99.90
23507;DHT22;11930;53.076;18.250;2023-04-25T08:57:42;13.20;99.90
23507;DHT22;11930;53.076;18.250;2023-04-25T09:00:10;13.20;99.90
23507;DHT22;11930;53.076;18.250;2023-04-25T09:02:39;13.40;99.90
23507;DHT22;11930;53.076;18.250;2023-04-25T09:05:09;13.30;99.90
23507;DHT22;11930;53.076;18.250;2023-04-25T09:07:37;13.30;99.90
23507;DHT22;11930;53.076;18.250;2023-04-25T09:12:35;13.40;99.90
23507;DHT22;11930;53.076;18.250;2023-04-25T09:17:58;14.00;99.90
23507;DHT22;11930;53.076;18.250;2023-04-25T09:20:28;13.90;99.90
23507;DHT22;11930;53.076;18.250;2023-04-25T09:23:05;14.10;99.90
23507;DHT22;11930;53.076;18.250;2023-04-25T09:25:35;14.10;99.90
23507;DHT22;11930;53.076;18.250;2023-04-25T09:28:06;14.10;99.90
23507;DHT22;11930;53.076;18.250;2023-04-25T09:30:34;14.40;99.90
23507;DHT22;11930;53.076;18.250;2023-04-25T09:40:59;14.10;99.90
23507;DHT22;11930;53.076;18.250;2023-04-25T09:43:39;14.30;99.90
23507;DHT22;11930;53.076;18.250;2023-04-25T09:46:10;14.70;98.80
23507;DHT22;11930;53.076;18.250;2023-04-25T09:48:50;14.60;99.90
23507;DHT22;11930;53.076;18.250;2023-04-25T09:51:19;14.20;99.60
23507;DHT22;11930;53.076;18.250;2023-04-25T09:53:47;14.20;99.90
23507;DHT22;11930;53.076;18.250;2023-04-25T09:56:36;14.20;99.90
23507;DHT22;11930;53.076;18.250;2023-04-25T09:59:06;14.20;99.90
23507;DHT22;11930;53.076;18.250;2023-04-25T10:01:35;14.20;99.90
23507;DHT22;11930;53.076;18.250;2023-04-25T10:04:11;14.20;99.80
23507;DHT22;11930;53.076;18.250;2023-04-25T10:07:08;14.80;99.90
23507;DHT22;11930;53.076;18.250;2023-04-25T10:09:37;14.40;96.40
23507;DHT22;11930;53.076;18.250;2023-04-25T10:12:08;14.50;99.30
23507;DHT22;11930;53.076;18.250;2023-04-25T10:14:35;13.80;98.30
23507;DHT22;11930;53.076;18.250;2023-04-25T10:17:01;14.70;97.60
23507;DHT22;11930;53.076;18.250;2023-04-25T10:19:28;13.90;96.10
23507;DHT22;11930;53.076;18.250;2023-04-25T10:22:08;14.50;92.50
23507;DHT22;11930;53.076;18.250;2023-04-25T10:24:38;14.50;97.20
23507;DHT22;11930;53.076;18.250;2023-04-25T10:27:06;14.30;93.00
23507;DHT22;11930;53.076;18.250;2023-04-25T10:29:32;14.40;97.90
23507;DHT22;11930;53.076;18.250;2023-04-25T10:31:58;14.40;98.90
23507;DHT22;11930;53.076;18.250;2023-04-25T10:34:38;14.10;94.30
23507;DHT22;11930;53.076;18.250;2023-04-25T10:37:05;14.10;94.20
23507;DHT22;11930;53.076;18.250;2023-04-25T10:39:33;14.20;99.90
23507;DHT22;11930;53.076;18.250;2023-04-25T10:42:01;14.70;98.80
23507;DHT22;11930;53.076;18.250;2023-04-25T10:44:28;14.30;99.00
23507;DHT22;11930;53.076;18.250;2023-04-25T10:46:57;14.50;99.30
23507;DHT22;11930;53.076;18.250;2023-04-25T10:49:33;14.10;99.10
23507;DHT22;11930;53.076;18.250;2023-04-25T10:54:53;14.50;95.70
23507;DHT22;11930;53.076;18.250;2023-04-25T11:02:31;14.60;94.60
23507;DHT22;11930;53.076;18.250;2023-04-25T11:04:57;14.20;96.30
23507;DHT22;11930;53.076;18.250;2023-04-25T11:07:38;14.50;95.90
23507;DHT22;11930;53.076;18.250;2023-04-25T11:10:05;14.30;92.40
23507;DHT22;11930;53.076;18.250;2023-04-25T11:12:32;14.50;98.10
23507;DHT22;11930;53.076;18.250;2023-04-25T11:15:05;14.30;93.60
23507;DHT22;11930;53.076;18.250;2023-04-25T11:17:32;14.30;94.10
23507;DHT22;11930;53.076;18.250;2023-04-25T11:19:59;14.30;93.20
23507;DHT22;11930;53.076;18.250;2023-04-25T11:22:27;14.30;92.80
23507;DHT22;11930;53.076;18.250;2023-04-25T11:24:53;14.20;91.50
23507;DHT22;11930;53.076;18.250;2023-04-25T11:27:20;14.10;96.10
23507;DHT22;11930;53.076;18.250;2023-04-25T11:29:46;14.10;91.90
23507;DHT22;11930;53.076;18.250;2023-04-25T11:32:17;14.20;95.10
23507;DHT22;11930;53.076;18.250;2023-04-25T11:34:44;13.90;95.30
23507;DHT22;11930;53.076;18.250;2023-04-25T11:37:14;14.30;90.90
23507;DHT22;11930;53.076;18.250;2023-04-25T11:39:43;14.30;95.80
23507;DHT22;11930;53.076;18.250;2023-04-25T11:42:11;14.40;97.10
23507;DHT22;11930;53.076;18.250;2023-04-25T11:44:39;14.40;92.50
23507;DHT22;11930;53.076;18.250;2023-04-25T11:47:06;13.60;98.10
23507;DHT22;11930;53.076;18.250;2023-04-25T11:49:32;15.40;98.80
23507;DHT22;11930;53.076;18.250;2023-04-25T11:51:59;14.60;98.40
23507;DHT22;11930;53.076;18.250;2023-04-25T11:54:24;14.80;97.20
23507;DHT22;11930;53.076;18.250;2023-04-25T11:56:52;14.30;97.10
23507;DHT22;11930;53.076;18.250;2023-04-25T11:59:23;14.50;96.90
23507;DHT22;11930;53.076;18.250;2023-04-25T12:01:50;13.90;94.90
23507;DHT22;11930;53.076;18.250;2023-04-25T12:04:21;14.10;99.30
23507;DHT22;11930;53.076;18.250;2023-04-25T12:06:49;13.90;95.90
23507;DHT22;11930;53.076;18.250;2023-04-25T12:09:21;13.90;98.40
23507;DHT22;11930;53.076;18.250;2023-04-25T12:11:57;13.80;99.90
23507;DHT22;11930;53.076;18.250;2023-04-25T12:16:58;13.50;99.90
23507;DHT22;11930;53.076;18.250;2023-04-25T12:19:25;13.20;99.90
23507;DHT22;11930;53.076;18.250;2023-04-25T12:21:52;13.40;99.40
23507;DHT22;11930;53.076;18.250;2023-04-25T12:24:22;13.30;99.90
23507;DHT22;11930;53.076;18.250;2023-04-25T12:26:58;13.10;99.90
23507;DHT22;11930;53.076;18.250;2023-04-25T12:29:27;13.00;99.90
23507;DHT22;11930;53.076;18.250;2023-04-25T12:31:55;13.00;99.90
23507;DHT22;11930;53.076;18.250;2023-04-25T12:34:22;12.60;99.90
23507;DHT22;11930;53.076;18.250;2023-04-25T12:36:49;12.60;99.90
23507;DHT22;11930;53.076;18.250;2023-04-25T12:39:17;12.80;99.90
23507;DHT22;11930;53.076;18.250;2023-04-25T12:41:44;12.70;99.90
23507;DHT22;11930;53.076;18.250;2023-04-25T12:44:10;12.80;99.90
23507;DHT22;11930;53.076;18.250;2023-04-25T12:46:37;12.80;99.90
23507;DHT22;11930;53.076;18.250;2023-04-25T12:49:03;13.10;99.90
23507;DHT22;11930;53.076;18.250;2023-04-25T12:51:30;13.10;99.90
23507;DHT22;11930;53.076;18.250;2023-04-25T12:53:59;13.40;99.90
23507;DHT22;11930;53.076;18.250;2023-04-25T12:56:29;13.40;99.90
23507;DHT22;11930;53.076;18.250;2023-04-25T12:58:55;13.10;99.90
23507;DHT22;11930;53.076;18.250;2023-04-25T13:01:22;13.60;99.90
23507;DHT22;11930;53.076;18.250;2023-04-25T13:03:48;13.30;99.90
23507;DHT22;11930;53.076;18.250;2023-04-25T13:06:15;14.00;99.90
23507;DHT22;11930;53.076;18.250;2023-04-25T13:08:42;13.70;98.50
23507;DHT22;11930;53.076;18.250;2023-04-25T13:11:09;13.80;97.40
23507;DHT22;11930;53.076;18.250;2023-04-25T13:13:35;14.00;95.20
23507;DHT22;11930;53.076;18.250;2023-04-25T13:16:02;14.20;93.70
23507;DHT22;11930;53.076;18.250;2023-04-25T13:18:31;14.40;94.90
23507;DHT22;11930;53.076;18.250;2023-04-25T13:20:58;14.60;92.20
23507;DHT22;11930;53.076;18.250;2023-04-25T13:23:26;14.80;91.60
23507;DHT22;11930;53.076;18.250;2023-04-25T13:25:53;14.90;91.50
23507;DHT22;11930;53.076;18.250;2023-04-25T13:28:19;15.10;89.00
23507;DHT22;11930;53.076;18.250;2023-04-25T13:30:46;15.20;88.70
23507;DHT22;11930;53.076;18.250;2023-04-25T13:33:14;15.20;87.90
23507;DHT22;11930;53.076;18.250;2023-04-25T13:35:41;15.30;87.30
23507;DHT22;11930;53.076;18.250;2023-04-25T13:38:07;15.30;87.00
23507;DHT22;11930;53.076;18.250;2023-04-25T13:40:33;15.20;86.50
23507;DHT22;11930;53.076;18.250;2023-04-25T13:42:59;15.10;86.60
23507;DHT22;11930;53.076;18.250;2023-04-25T13:45:26;15.00;88.10
23507;DHT22;11930;53.076;18.250;2023-04-25T13:47:52;14.90;87.30
23507;DHT22;11930;53.076;18.250;2023-04-25T13:50:18;14.80;87.50
23507;DHT22;11930;53.076;18.250;2023-04-25T13:52:44;14.70;87.80
23507;DHT22;11930;53.076;18.250;2023-04-25T13:55:10;14.70;88.70
23507;DHT22;11930;53.076;18.250;2023-04-25T13:57:37;14.60;87.90
23507;DHT22;11930;53.076;18.250;2023-04-25T14:00:04;14.50;90.20
23507;DHT22;11930;53.076;18.250;2023-04-25T14:02:38;14.40;90.80
23507;DHT22;11930;53.076;18.250;2023-04-25T14:05:05;14.30;91.60
23507;DHT22;11930;53.076;18.250;2023-04-25T14:07:33;14.10;93.00
23507;DHT22;11930;53.076;18.250;2023-04-25T14:10:01;14.00;94.10
23507;DHT22;11930;53.076;18.250;2023-04-25T14:12:27;13.90;94.50
23507;DHT22;11930;53.076;18.250;2023-04-25T14:14:53;13.80;93.90
23507;DHT22;11930;53.076;18.250;2023-04-25T14:17:19;13.70;94.30
23507;DHT22;11930;53.076;18.250;2023-04-25T14:19:46;13.60;94.80
23507;DHT22;11930;53.076;18.250;2023-04-25T14:22:14;13.60;96.10
23507;DHT22;11930;53.076;18.250;2023-04-25T14:24:43;13.50;96.40
23507;DHT22;11930;53.076;18.250;2023-04-25T14:27:09;13.50;97.10
23507;DHT22;11930;53.076;18.250;2023-04-25T14:29:36;13.40;97.60
23507;DHT22;11930;53.076;18.250;2023-04-25T14:32:02;13.40;98.70
23507;DHT22;11930;53.076;18.250;2023-04-25T14:34:28;13.40;99.90
23507;DHT22;11930;53.076;18.250;2023-04-25T14:36:54;13.50;99.70
23507;DHT22;11930;53.076;18.250;2023-04-25T14:39:20;13.50;99.90
23507;DHT22;11930;53.076;18.250;2023-04-25T14:41:46;13.50;99.90
23507;DHT22;11930;53.076;18.250;2023-04-25T14:44:12;13.70;99.90
23507;DHT22;11930;53.076;18.250;2023-04-25T14:46:38;13.70;99.90
23507;DHT22;11930;53.076;18.250;2023-04-25T14:49:04;13.80;99.90
23507;DHT22;11930;53.076;18.250;2023-04-25T14:51:31;13.80;99.50
23507;DHT22;11930;53.076;18.250;2023-04-25T14:53:57;13.80;99.00
23507;DHT22;11930;53.076;18.250;2023-04-25T14:56:23;13.60;98.20
23507;DHT22;11930;53.076;18.250;2023-04-25T14:58:50;13.40;98.90
23507;DHT22;11930;53.076;18.250;2023-04-25T15:01:16;13.10;99.90
23507;DHT22;11930;53.076;18.250;2023-04-25T15:03:42;12.80;99.90
23507;DHT22;11930;53.076;18.250;2023-04-25T15:06:08;12.50;99.90
23507;DHT22;11930;53.076;18.250;2023-04-25T15:08:34;12.20;99.90
23507;DHT22;11930;53.076;18.250;2023-04-25T15:11:01;12.00;99.90
23507;DHT22;11930;53.076;18.250;2023-04-25T15:13:28;11.40;99.90
23507;DHT22;11930;53.076;18.250;2023-04-25T15:18:21;11.20;99.90
23507;DHT22;11930;53.076;18.250;2023-04-25T15:20:52;11.00;99.90
23507;DHT22;11930;53.076;18.250;2023-04-25T15:23:20;10.60;99.90
23507;DHT22;11930;53.076;18.250;2023-04-25T15:25:47;10.60;99.90
23507;DHT22;11930;53.076;18.250;2023-04-25T15:28:13;10.60;99.90
23507;DHT22;11930;53.076;18.250;2023-04-25T15:30:42;10.30;99.90
23507;DHT22;11930;53.076;18.250;2023-04-25T15:38:01;9.50;99.90
23507;DHT22;11930;53.076;18.250;2023-04-25T15:40:27;10.00;99.90
23507;DHT22;11930;53.076;18.250;2023-04-25T15:42:53;10.00;99.90
23507;DHT22;11930;53.076;18.250;2023-04-25T15:45:21;9.90;99.90
23507;DHT22;11930;53.076;18.250;2023-04-25T15:47:51;10.00;99.90
23507;DHT22;11930;53.076;18.250;2023-04-25T15:50:18;10.00;99.90
23507;DHT22;11930;53.076;18.250;2023-04-25T15:52:44;10.10;99.90
23507;DHT22;11930;53.076;18.250;2023-04-25T15:55:11;10.10;99.90
23507;DHT22;11930;53.076;18.250;2023-04-25T15:57:38;10.20;99.90
23507;DHT22;11930;53.076;18.250;2023-04-25T16:00:07;10.30;99.90
23507;DHT22;11930;53.076;18.250;2023-04-25T16:02:38;10.30;99.90
23507;DHT22;11930;53.076;18.250;2023-04-25T16:05:05;10.40;99.90
23507;DHT22;11930;53.076;18.250;2023-04-25T16:07:32;10.30;99.90
23507;DHT22;11930;53.076;18.250;2023-04-25T16:09:58;11.20;99.90
23507;DHT22;11930;53.076;18.250;2023-04-25T16:17:17;10.60;99.90
23507;DHT22;11930;53.076;18.250;2023-04-25T16:24:38;10.70;99.90
23507;DHT22;11930;53.076;18.250;2023-04-25T16:29:30;10.60;99.90
23507;DHT22;11930;53.076;18.250;2023-04-25T16:31:56;10.50;99.90
23507;DHT22;11930;53.076;18.250;2023-04-25T16:36:49;10.60;99.90
23507;DHT22;11930;53.076;18.250;2023-04-25T16:39:15;10.50;99.90
23507;DHT22;11930;53.076;18.250;2023-04-25T16:41:42;10.60;99.90
23507;DHT22;11930;53.076;18.250;2023-04-25T16:44:08;10.60;99.90
23507;DHT22;11930;53.076;18.250;2023-04-25T16:49:01;10.50;99.90
23507;DHT22;11930;53.076;18.250;2023-04-25T16:51:27;10.40;99.90
23507;DHT22;11930;53.076;18.250;2023-04-25T16:53:53;10.10;99.90
23507;DHT22;11930;53.076;18.250;2023-04-25T16:56:21;10.00;99.90
23507;DHT22;11930;53.076;18.250;2023-04-25T16:58:48;9.90;99.90
23507;DHT22;11930;53.076;18.250;2023-04-25T17:03:42;10.30;99.90
23507;DHT22;11930;53.076;18.250;2023-04-25T17:06:09;9.80;99.90
23507;DHT22;11930;53.076;18.250;2023-04-25T17:11:02;10.10;99.90
23507;DHT22;11930;53.076;18.250;2023-04-25T17:13:28;10.00;99.90
23507;DHT22;11930;53.076;18.250;2023-04-25T17:15:55;10.00;99.90
23507;DHT22;11930;53.076;18.250;2023-04-25T17:18:21;9.80;99.90
23507;DHT22;11930;53.076;18.250;2023-04-25T17:20:48;10.20;99.90
23507;DHT22;11930;53.076;18.250;2023-04-25T17:23:13;10.10;99.90
23507;DHT22;11930;53.076;18.250;2023-04-25T17:25:40;9.90;99.90
23507;DHT22;11930;53.076;18.250;2023-04-25T17:28:06;9.70;99.90
23507;DHT22;11930;53.076;18.250;2023-04-25T17:30:32;9.80;99.90
23507;DHT22;11930;53.076;18.250;2023-04-25T17:32:59;10.00;99.90
23507;DHT22;11930;53.076;18.250;2023-04-25T17:35:25;9.40;99.90
23507;DHT22;11930;53.076;18.250;2023-04-25T17:37:51;10.10;99.90
23507;DHT22;11930;53.076;18.250;2023-04-25T17:40:18;9.90;99.90
23507;DHT22;11930;53.076;18.250;2023-04-25T17:42:44;9.80;99.90
23507;DHT22;11930;53.076;18.250;2023-04-25T17:45:11;9.70;99.90
23507;DHT22;11930;53.076;18.250;2023-04-25T17:47:38;9.90;99.90
23507;DHT22;11930;53.076;18.250;2023-04-25T17:50:06;9.80;99.90
23507;DHT22;11930;53.076;18.250;2023-04-25T17:52:32;9.90;99.90
23507;DHT22;11930;53.076;18.250;2023-04-25T17:54:58;9.00;99.90
23507;DHT22;11930;53.076;18.250;2023-04-25T17:57:24;9.80;99.90
23507;DHT22;11930;53.076;18.250;2023-04-25T17:59:52;9.20;99.90
23507;DHT22;11930;53.076;18.250;2023-04-25T18:02:18;9.60;99.90
23507;DHT22;11930;53.076;18.250;2023-04-25T18:04:45;9.50;99.90
23507;DHT22;11930;53.076;18.250;2023-04-25T18:07:11;9.40;99.90
23507;DHT22;11930;53.076;18.250;2023-04-25T18:09:38;9.80;99.90
23507;DHT22;11930;53.076;18.250;2023-04-25T18:12:04;9.70;99.90
23507;DHT22;11930;53.076;18.250;2023-04-25T18:14:30;9.70;99.90
23507;DHT22;11930;53.076;18.250;2023-04-25T18:16:58;9.60;99.90
23507;DHT22;11930;53.076;18.250;2023-04-25T18:21:52;9.80;99.90
23507;DHT22;11930;53.076;18.250;2023-04-25T18:24:20;9.30;99.90
23507;DHT22;11930;53.076;18.250;2023-04-25T18:26:47;9.40;99.90
23507;DHT22;11930;53.076;18.250;2023-04-25T18:29:14;8.80;99.90
23507;DHT22;11930;53.076;18.250;2023-04-25T18:31:41;9.60;99.90
23507;DHT22;11930;53.076;18.250;2023-04-25T18:34:07;9.40;99.90
23507;DHT22;11930;53.076;18.250;2023-04-25T18:36:34;9.40;99.90
23507;DHT22;11930;53.076;18.250;2023-04-25T18:39:02;9.20;99.90
23507;DHT22;11930;53.076;18.250;2023-04-25T18:41:31;8.90;99.90
23507;DHT22;11930;53.076;18.250;2023-04-25T18:43:57;9.20;99.90
23507;DHT22;11930;53.076;18.250;2023-04-25T18:46:28;8.90;99.90
23507;DHT22;11930;53.076;18.250;2023-04-25T18:48:54;8.80;99.90
23507;DHT22;11930;53.076;18.250;2023-04-25T18:51:22;9.00;99.90
23507;DHT22;11930;53.076;18.250;2023-04-25T18:53:49;8.80;99.90
23507;DHT22;11930;53.076;18.250;2023-04-25T19:01:09;8.50;99.90
23507;DHT22;11930;53.076;18.250;2023-04-25T19:03:35;9.20;99.90
23507;DHT22;11930;53.076;18.250;2023-04-25T19:08:29;8.70;99.90
23507;DHT22;11930;53.076;18.250;2023-04-25T19:10:55;8.50;99.90
23507;DHT22;11930;53.076;18.250;2023-04-25T19:13:22;8.60;99.90
23507;DHT22;11930;53.076;18.250;2023-04-25T19:15:48;8.60;99.90
23507;DHT22;11930;53.076;18.250;2023-04-25T19:18:14;8.90;99.90
23507;DHT22;11930;53.076;18.250;2023-04-25T19:20:40;8.70;99.90
23507;DHT22;11930;53.076;18.250;2023-04-25T19:23:06;8.50;99.90
23507;DHT22;11930;53.076;18.250;2023-04-25T19:25:33;8.50;99.90
23507;DHT22;11930;53.076;18.250;2023-04-25T19:32:54;8.50;99.90
23507;DHT22;11930;53.076;18.250;2023-04-25T19:35:23;8.20;99.90
23507;DHT22;11930;53.076;18.250;2023-04-25T19:37:50;8.60;99.90
23507;DHT22;11930;53.076;18.250;2023-04-25T19:40:17;8.40;99.90
23507;DHT22;11930;53.076;18.250;2023-04-25T19:42:43;8.40;99.90
23507;DHT22;11930;53.076;18.250;2023-04-25T19:45:10;8.40;99.90
23507;DHT22;11930;53.076;18.250;2023-04-25T19:47:36;8.40;99.90
23507;DHT22;11930;53.076;18.250;2023-04-25T19:50:07;8.40;99.90
23507;DHT22;11930;53.076;18.250;2023-04-25T19:52:37;8.20;99.90
23507;DHT22;11930;53.076;18.250;2023-04-25T19:55:03;8.20;99.90
23507;DHT22;11930;53.076;18.250;2023-04-25T19:57:31;8.20;99.90
23507;DHT22;11930;53.076;18.250;2023-04-25T20:00:07;8.10;99.90
23507;DHT22;11930;53.076;18.250;2023-04-25T20:02:39;8.00;99.90
23507;DHT22;11930;53.076;18.250;2023-04-25T20:05:06;7.90;99.90
23507;DHT22;11930;53.076;18.250;2023-04-25T20:07:33;7.90;99.90
23507;DHT22;11930;53.076;18.250;2023-04-25T20:10:00;7.80;99.90
23507;DHT22;11930;53.076;18.250;2023-04-25T20:12:32;7.80;99.90
23507;DHT22;11930;53.076;18.250;2023-04-25T20:14:59;7.70;99.90
23507;DHT22;11930;53.076;18.250;2023-04-25T20:17:26;7.60;99.90
23507;DHT22;11930;53.076;18.250;2023-04-25T20:19:52;7.50;99.90
23507;DHT22;11930;53.076;18.250;2023-04-25T20:22:18;7.50;99.90
23507;DHT22;11930;53.076;18.250;2023-04-25T20:24:44;7.40;99.90
23507;DHT22;11930;53.076;18.250;2023-04-25T20:27:10;7.40;99.90
23507;DHT22;11930;53.076;18.250;2023-04-25T20:29:36;7.30;99.90
23507;DHT22;11930;53.076;18.250;2023-04-25T20:32:02;7.30;99.90
23507;DHT22;11930;53.076;18.250;2023-04-25T20:34:28;7.20;99.90
23507;DHT22;11930;53.076;18.250;2023-04-25T20:36:56;7.20;99.90